Time;durP1;ratioP1;P1;durP2;ratioP2;P2;SDS_P1;SDS_P2;PMS_P1;PMS_P2;Temp;Humidity;BMP_temperature;BMP_pressure;BME280_temperature;BME280_humidity;BME280_pressure;Samples;Min_cycle;Max_cycle;Signal;HPM_P1;HPM_P2
2021/06/21 00:00:08;;;;;;;16.60;8.43;;;11.60;99.90;;;;;;5003918;28;20038;-93
2021/06/21 00:02:37;;;;;;;18.08;7.72;;;11.60;99.90;;;;;;5006191;28;20026;-93
2021/06/21 00:05:04;;;;;;;17.42;8.07;;;11.70;99.90;;;;;;4988251;28;20037;-94
2021/06/21 00:07:30;;;;;;;16.45;7.63;;;11.70;99.90;;;;;;5001163;28;20026;-94
2021/06/21 00:09:56;;;;;;;16.95;7.70;;;11.70;99.90;;;;;;5002053;28;20026;-93
2021/06/21 00:12:21;;;;;;;17.20;7.47;;;11.80;99.90;;;;;;5002725;28;20022;-93
2021/06/21 00:14:48;;;;;;;13.90;8.18;;;11.70;99.90;;;;;;5003229;28;20026;-92
2021/06/21 00:17:16;;;;;;;14.38;8.32;;;11.70;99.90;;;;;;5000769;28;20049;-93
2021/06/21 00:19:45;;;;;;;14.38;7.55;;;11.70;99.90;;;;;;5001746;28;20125;-93
2021/06/21 00:22:11;;;;;;;17.17;8.75;;;11.60;99.90;;;;;;5001873;28;20064;-94
2021/06/21 00:24:37;;;;;;;15.63;8.57;;;11.60;99.90;;;;;;5001622;28;20061;-95
2021/06/21 00:27:05;;;;;;;18.67;8.88;;;11.50;99.90;;;;;;5001554;28;20113;-94
2021/06/21 00:29:31;;;;;;;15.95;9.10;;;11.50;99.90;;;;;;5001867;28;20075;-92
2021/06/21 00:31:57;;;;;;;16.30;7.90;;;11.50;99.90;;;;;;5019049;28;20033;-94
2021/06/21 00:34:26;;;;;;;15.35;8.43;;;11.50;99.90;;;;;;5000269;28;20049;-93
2021/06/21 00:36:52;;;;;;;15.07;7.75;;;11.50;99.90;;;;;;5002467;28;20387;-94
2021/06/21 00:39:18;;;;;;;15.55;7.80;;;11.50;99.90;;;;;;5003290;28;20037;-93
2021/06/21 00:41:45;;;;;;;15.27;7.30;;;11.50;99.90;;;;;;5018198;28;20475;-94
2021/06/21 00:44:11;;;;;;;16.92;7.90;;;11.50;99.90;;;;;;5000806;28;20091;-93
2021/06/21 00:46:37;;;;;;;11.40;6.82;;;11.50;99.90;;;;;;5000784;28;20041;-94
2021/06/21 00:49:03;;;;;;;14.85;7.45;;;11.50;99.90;;;;;;5000452;28;20093;-94
2021/06/21 00:51:30;;;;;;;13.18;7.72;;;11.60;99.90;;;;;;5001638;28;20376;-94
2021/06/21 00:53:57;;;;;;;16.23;7.18;;;11.50;99.90;;;;;;5002373;28;20048;-95
2021/06/21 00:56:25;;;;;;;13.88;7.20;;;11.50;99.90;;;;;;5001810;28;20034;-95
2021/06/21 00:58:57;;;;;;;13.40;7.03;;;11.50;99.90;;;;;;5001834;28;20022;-95
2021/06/21 01:01:23;;;;;;;19.35;8.25;;;11.50;99.90;;;;;;5003209;28;20025;-94
2021/06/21 01:03:49;;;;;;;19.38;7.85;;;11.50;99.90;;;;;;5008426;28;20100;-94
2021/06/21 01:06:15;;;;;;;12.63;7.22;;;11.50;99.90;;;;;;5002456;28;20032;-93
2021/06/21 01:08:40;;;;;;;14.38;7.57;;;11.40;99.90;;;;;;5003193;28;20116;-94
2021/06/21 01:11:09;;;;;;;18.38;7.28;;;11.40;99.90;;;;;;5002120;28;20071;-95
2021/06/21 01:13:40;;;;;;;15.23;8.55;;;11.40;99.90;;;;;;5001716;28;20117;-93
2021/06/21 01:16:17;;;;;;;15.50;8.02;;;11.30;99.90;;;;;;5000520;28;20115;-94
2021/06/21 01:19:18;;;;;;;23.10;9.32;;;11.20;99.90;;;;;;5002994;28;20033;-94
2021/06/21 01:22:11;;;;;;;14.95;8.38;;;11.10;99.90;;;;;;4938736;29;20071;-93
2021/06/21 01:25:04;;;;;;;13.10;7.60;;;11.00;99.90;;;;;;4938167;29;20091;-93
2021/06/21 01:27:33;;;;;;;16.42;8.02;;;11.00;99.90;;;;;;4920050;29;20599;-94
2021/06/21 01:30:09;;;;;;;15.40;7.90;;;11.00;99.90;;;;;;4937641;29;20057;-94
2021/06/21 01:32:56;;;;;;;15.98;8.40;;;10.90;99.90;;;;;;4921445;29;20036;-93
2021/06/21 01:35:31;;;;;;;20.77;7.95;;;10.90;99.90;;;;;;4937575;29;20134;-93
2021/06/21 01:38:00;;;;;;;14.65;8.43;;;10.80;99.90;;;;;;4920965;29;20028;-94
2021/06/21 01:40:30;;;;;;;16.10;8.20;;;10.80;99.90;;;;;;4934606;29;20513;-93
2021/06/21 01:43:01;;;;;;;15.40;8.13;;;10.80;99.90;;;;;;4921033;29;20059;-93
2021/06/21 01:45:29;;;;;;;16.50;7.75;;;10.70;99.90;;;;;;4936622;29;20053;-93
2021/06/21 01:47:55;;;;;;;17.23;9.65;;;10.70;99.90;;;;;;4936429;29;20027;-93
2021/06/21 01:50:24;;;;;;;18.23;9.32;;;10.70;99.90;;;;;;4920783;29;20027;-92
2021/06/21 01:53:04;;;;;;;16.30;8.65;;;10.70;99.90;;;;;;4936228;29;20039;-92
2021/06/21 01:55:32;;;;;;;21.50;9.80;;;10.70;99.90;;;;;;4920210;29;20122;-92
2021/06/21 01:57:59;;;;;;;18.65;9.88;;;10.70;99.90;;;;;;4933015;28;20124;-94
2021/06/21 02:00:26;;;;;;;18.50;8.02;;;10.70;99.90;;;;;;4997425;28;20030;-93
2021/06/21 02:02:54;;;;;;;17.45;9.82;;;10.60;99.90;;;;;;4997360;28;20099;-92
2021/06/21 02:05:23;;;;;;;19.15;9.02;;;10.60;99.90;;;;;;4997629;28;20153;-93
2021/06/21 02:07:51;;;;;;;18.77;9.85;;;10.60;99.90;;;;;;4997612;28;20021;-93
2021/06/21 02:10:20;;;;;;;17.52;9.10;;;10.50;99.90;;;;;;5014510;28;20046;-93
2021/06/21 02:12:48;;;;;;;19.52;10.02;;;10.40;99.90;;;;;;4997764;28;20041;-94
2021/06/21 02:15:15;;;;;;;18.77;9.00;;;10.40;99.90;;;;;;4997206;28;20634;-94
2021/06/21 02:17:44;;;;;;;17.17;9.30;;;10.30;99.90;;;;;;4997371;28;20025;-93
2021/06/21 02:20:12;;;;;;;19.63;9.38;;;10.30;99.90;;;;;;4997110;28;20026;-93
2021/06/21 02:22:39;;;;;;;16.77;9.40;;;10.20;99.90;;;;;;4997387;28;20121;-93
2021/06/21 02:25:07;;;;;;;17.55;9.57;;;10.20;99.90;;;;;;4996960;28;20394;-95
2021/06/21 02:27:37;;;;;;;21.17;10.65;;;10.20;99.90;;;;;;4998338;28;20025;-93
2021/06/21 02:30:10;;;;;;;22.50;10.73;;;10.20;99.90;;;;;;4998890;28;20053;-94
2021/06/21 02:32:36;;;;;;;21.33;9.70;;;10.10;99.90;;;;;;4998057;28;20053;-93
2021/06/21 02:35:07;;;;;;;20.13;10.35;;;10.10;99.90;;;;;;4983411;28;20590;-95
2021/06/21 02:37:36;;;;;;;18.98;9.77;;;10.00;99.90;;;;;;5000517;28;20021;-93
2021/06/21 02:40:08;;;;;;;19.10;10.05;;;10.00;99.90;;;;;;5006863;28;20037;-93
2021/06/21 02:42:33;;;;;;;18.42;10.20;;;10.00;99.90;;;;;;5013711;28;20037;-93
2021/06/21 02:44:59;;;;;;;23.50;10.80;;;10.00;99.90;;;;;;5032884;28;20185;-93
2021/06/21 02:47:27;;;;;;;21.55;10.25;;;10.00;99.90;;;;;;5015261;28;20016;-94
2021/06/21 02:50:25;;;;;;;24.73;11.68;;;10.00;99.90;;;;;;5016091;28;20034;-93
2021/06/21 02:53:28;;;;;;;22.90;10.82;;;9.90;99.90;;;;;;5008710;28;20032;-92
2021/06/21 02:56:21;;;;;;;20.08;10.15;;;9.90;99.90;;;;;;5011243;28;20037;-94
2021/06/21 02:58:48;;;;;;;18.35;9.50;;;9.90;99.90;;;;;;5010338;28;20091;-93
2021/06/21 03:01:16;;;;;;;17.70;10.38;;;9.80;99.90;;;;;;5009563;28;20030;-94
2021/06/21 03:03:49;;;;;;;16.92;9.50;;;9.80;99.90;;;;;;5010644;28;20053;-93
2021/06/21 03:06:16;;;;;;;21.25;10.30;;;9.80;99.90;;;;;;5010150;28;20018;-93
2021/06/21 03:08:43;;;;;;;23.25;10.77;;;9.70;99.90;;;;;;5029074;28;20026;-94
2021/06/21 03:11:09;;;;;;;20.77;9.82;;;9.70;99.90;;;;;;5009464;28;20147;-93
2021/06/21 03:13:37;;;;;;;21.27;9.63;;;9.70;99.90;;;;;;5011826;28;20030;-93
2021/06/21 03:16:04;;;;;;;28.50;12.45;;;9.70;99.90;;;;;;5012269;28;20025;-95
2021/06/21 03:18:30;;;;;;;21.25;10.18;;;9.60;99.90;;;;;;5009277;28;20026;-93
2021/06/21 03:21:00;;;;;;;17.92;10.65;;;9.60;99.90;;;;;;5008876;28;20111;-94
2021/06/21 03:23:30;;;;;;;25.00;10.57;;;9.60;99.90;;;;;;5010453;28;20045;-93
2021/06/21 03:25:59;;;;;;;23.23;10.70;;;9.60;99.90;;;;;;4995886;28;20113;-93
2021/06/21 03:28:26;;;;;;;20.58;10.30;;;9.60;99.90;;;;;;5010064;28;20100;-92
2021/06/21 03:30:58;;;;;;;20.92;9.77;;;9.60;99.90;;;;;;5011270;28;20041;-95
2021/06/21 03:33:25;;;;;;;23.15;10.68;;;9.50;99.90;;;;;;5011142;28;20052;-93
2021/06/21 03:35:51;;;;;;;20.77;10.57;;;9.50;99.90;;;;;;5010961;28;20030;-93
2021/06/21 03:38:28;;;;;;;19.70;10.68;;;9.50;99.90;;;;;;5010848;28;20086;-94
2021/06/21 03:41:00;;;;;;;22.05;10.35;;;9.50;99.90;;;;;;5010025;28;20145;-95
2021/06/21 03:43:27;;;;;;;20.63;10.05;;;9.50;99.90;;;;;;5009590;28;20030;-94
2021/06/21 03:45:58;;;;;;;22.60;10.60;;;9.50;99.90;;;;;;5011069;28;20037;-94
2021/06/21 03:48:25;;;;;;;21.42;9.73;;;9.40;99.90;;;;;;5009155;28;20037;-94
2021/06/21 03:50:56;;;;;;;20.13;9.65;;;9.40;99.90;;;;;;5011266;28;20057;-94
2021/06/21 03:53:24;;;;;;;18.65;10.32;;;9.40;99.90;;;;;;5012968;28;20117;-94
2021/06/21 03:55:50;;;;;;;18.80;9.05;;;9.40;99.90;;;;;;5012557;28;20062;-94
2021/06/21 03:58:17;;;;;;;16.95;8.40;;;9.40;99.90;;;;;;5013044;28;20029;-93
2021/06/21 04:00:43;;;;;;;16.75;8.80;;;9.40;99.90;;;;;;4997106;28;20091;-93
2021/06/21 04:03:09;;;;;;;23.50;10.20;;;9.40;99.90;;;;;;5013274;28;20402;-94
2021/06/21 04:05:39;;;;;;;16.55;9.80;;;9.30;99.90;;;;;;5013122;28;20041;-93
2021/06/21 04:08:14;;;;;;;17.27;8.52;;;9.30;99.90;;;;;;5010612;28;20025;-94
2021/06/21 04:10:41;;;;;;;16.27;9.02;;;9.30;99.90;;;;;;5010304;28;20073;-94
2021/06/21 04:13:09;;;;;;;17.08;8.43;;;9.30;99.90;;;;;;5009842;28;20022;-94
2021/06/21 04:15:38;;;;;;;13.70;7.80;;;9.30;99.90;;;;;;5009206;28;20030;-95
2021/06/21 04:18:09;;;;;;;18.52;8.38;;;9.30;99.90;;;;;;5009100;28;20109;-94
2021/06/21 04:20:36;;;;;;;15.05;8.35;;;9.30;99.90;;;;;;5009300;28;20022;-96
2021/06/21 04:23:03;;;;;;;17.83;8.90;;;9.40;99.90;;;;;;5008913;28;20033;-94
2021/06/21 04:25:29;;;;;;;20.40;8.60;;;9.40;99.90;;;;;;5008232;28;20097;-94
2021/06/21 04:27:54;;;;;;;15.75;8.75;;;9.50;99.90;;;;;;5007936;28;20496;-94
2021/06/21 04:30:22;;;;;;;19.90;9.70;;;9.50;99.90;;;;;;5007538;28;20045;-94
2021/06/21 04:32:48;;;;;;;20.92;9.27;;;9.60;99.90;;;;;;5006470;28;20090;-93
2021/06/21 04:35:18;;;;;;;18.13;9.32;;;9.60;99.90;;;;;;5006332;28;20056;-94
2021/06/21 04:37:44;;;;;;;20.70;10.53;;;9.60;99.90;;;;;;5006319;28;20112;-94
2021/06/21 04:40:13;;;;;;;20.50;9.73;;;9.60;99.90;;;;;;5006685;28;20299;-95
2021/06/21 04:42:41;;;;;;;24.55;9.70;;;9.60;99.90;;;;;;5006084;28;20405;-95
2021/06/21 04:45:07;;;;;;;21.38;9.73;;;9.60;99.90;;;;;;5005620;28;20056;-95
2021/06/21 04:47:33;;;;;;;16.73;8.90;;;9.60;99.90;;;;;;5006102;28;20026;-93
2021/06/21 04:50:05;;;;;;;20.17;10.35;;;9.60;99.90;;;;;;5004962;28;20029;-93
2021/06/21 04:52:37;;;;;;;22.42;9.82;;;9.50;99.90;;;;;;5006080;28;20025;-93
2021/06/21 04:55:05;;;;;;;20.92;8.98;;;9.50;99.90;;;;;;5005893;28;20029;-93
2021/06/21 04:57:33;;;;;;;17.88;9.23;;;9.50;99.90;;;;;;4989018;28;20036;-93
2021/06/21 05:00:00;;;;;;;21.35;10.05;;;9.60;99.90;;;;;;5004560;28;20026;-93
2021/06/21 05:02:28;;;;;;;18.70;9.52;;;9.60;99.90;;;;;;5003541;28;20056;-95
2021/06/21 05:04:59;;;;;;;20.48;9.85;;;9.60;99.90;;;;;;5004000;28;20462;-95
2021/06/21 05:07:24;;;;;;;21.20;10.98;;;9.70;99.90;;;;;;4990828;28;20050;-93
2021/06/21 05:09:52;;;;;;;18.15;8.20;;;9.80;99.90;;;;;;5008248;28;20030;-94
2021/06/21 05:12:18;;;;;;;17.45;9.20;;;9.80;99.90;;;;;;5004229;28;20034;-95
2021/06/21 05:14:45;;;;;;;20.30;9.43;;;9.90;99.90;;;;;;5007074;28;20044;-94
2021/06/21 05:17:11;;;;;;;17.23;9.05;;;9.90;99.90;;;;;;5005267;28;20453;-94
2021/06/21 05:19:38;;;;;;;23.92;10.35;;;10.00;99.90;;;;;;5007144;28;20032;-93
2021/06/21 05:22:05;;;;;;;22.33;9.90;;;10.10;99.90;;;;;;5007402;28;20026;-95
2021/06/21 05:24:32;;;;;;;19.90;9.95;;;10.10;99.90;;;;;;5006014;28;20037;-95
2021/06/21 05:26:58;;;;;;;24.10;8.90;;;10.20;99.90;;;;;;5005629;28;20029;-94
2021/06/21 05:29:23;;;;;;;16.17;7.97;;;10.20;99.90;;;;;;5007027;28;20094;-94
2021/06/21 05:31:49;;;;;;;16.77;8.35;;;10.20;99.90;;;;;;5007047;28;20036;-94
2021/06/21 05:34:25;;;;;;;17.30;8.60;;;10.30;99.90;;;;;;4995584;28;20049;-94
2021/06/21 05:36:52;;;;;;;17.38;8.85;;;10.40;99.90;;;;;;5012907;28;20029;-95
2021/06/21 05:39:18;;;;;;;16.30;8.55;;;10.40;99.90;;;;;;5010667;28;20025;-94
2021/06/21 05:41:44;;;;;;;18.13;8.05;;;10.40;99.90;;;;;;5011331;28;20033;-94
2021/06/21 05:44:13;;;;;;;14.10;7.68;;;10.50;99.90;;;;;;5013265;28;20030;-95
2021/06/21 05:46:40;;;;;;;14.82;7.22;;;10.60;99.90;;;;;;5013467;28;20093;-95
2021/06/21 05:49:07;;;;;;;12.38;6.57;;;10.70;99.90;;;;;;5009091;28;20061;-95
2021/06/21 05:51:35;;;;;;;17.30;7.13;;;10.70;99.90;;;;;;5004374;28;20026;-94
2021/06/21 05:54:02;;;;;;;15.35;6.97;;;10.80;99.90;;;;;;5005318;28;20030;-95
2021/06/21 05:56:30;;;;;;;12.13;6.88;;;10.90;99.90;;;;;;5007262;28;20026;-95
2021/06/21 05:58:56;;;;;;;17.23;6.28;;;10.90;99.90;;;;;;4990341;28;20057;-94
2021/06/21 06:01:23;;;;;;;11.73;6.60;;;11.00;99.90;;;;;;5002120;28;20041;-95
2021/06/21 06:03:51;;;;;;;17.77;7.30;;;11.10;99.90;;;;;;4988611;28;20032;-94
2021/06/21 06:06:18;;;;;;;12.93;5.93;;;11.20;99.90;;;;;;5003802;28;20046;-94
2021/06/21 06:08:46;;;;;;;15.73;6.10;;;11.30;99.90;;;;;;5003308;28;20026;-95
2021/06/21 06:11:14;;;;;;;14.75;6.50;;;11.30;99.90;;;;;;5001495;28;20032;-94
2021/06/21 06:13:40;;;;;;;10.93;7.18;;;11.40;99.90;;;;;;5000500;28;20018;-95
2021/06/21 06:16:06;;;;;;;9.63;5.65;;;11.40;99.90;;;;;;5006748;28;20025;-94
2021/06/21 06:18:32;;;;;;;12.27;6.05;;;11.50;99.90;;;;;;5008492;28;20045;-93
2021/06/21 06:20:58;;;;;;;8.93;5.43;;;11.60;99.90;;;;;;5001489;28;20025;-94
2021/06/21 06:23:25;;;;;;;15.48;5.97;;;11.60;99.90;;;;;;5000717;28;20033;-94
2021/06/21 06:25:51;;;;;;;12.90;6.15;;;11.60;99.90;;;;;;4999622;28;20049;-93
2021/06/21 06:28:17;;;;;;;12.00;5.82;;;11.70;99.90;;;;;;5000387;28;20022;-95
2021/06/21 06:30:53;;;;;;;12.55;5.88;;;11.80;99.90;;;;;;5002099;28;20025;-93
2021/06/21 06:33:18;;;;;;;12.88;5.68;;;11.80;99.90;;;;;;4979818;28;20033;-94
2021/06/21 06:35:46;;;;;;;11.70;5.65;;;11.90;99.90;;;;;;4979964;28;20403;-94
2021/06/21 06:38:13;;;;;;;11.25;5.70;;;12.00;99.90;;;;;;4980846;28;20044;-94
2021/06/21 06:40:39;;;;;;;9.95;4.57;;;12.10;99.90;;;;;;4993758;28;20127;-96
2021/06/21 06:43:04;;;;;;;11.15;5.10;;;12.20;99.90;;;;;;5006814;28;20097;-94
2021/06/21 06:45:30;;;;;;;9.65;5.13;;;12.30;99.90;;;;;;4993005;28;20104;-96
2021/06/21 06:47:56;;;;;;;10.63;5.50;;;12.40;99.90;;;;;;4988522;28;20026;-95
2021/06/21 06:50:23;;;;;;;9.98;5.00;;;12.60;99.90;;;;;;4995178;28;20137;-94
2021/06/21 06:52:49;;;;;;;13.57;5.20;;;12.80;99.90;;;;;;4981889;28;20034;-96
2021/06/21 06:58:00;;;;;;;8.45;4.35;;;13.10;99.90;;;;;;5012245;28;20034;-93
2021/06/21 07:00:27;;;;;;;11.00;4.35;;;13.30;99.90;;;;;;5003712;28;20034;-95
2021/06/21 07:02:53;;;;;;;7.90;3.50;;;13.30;99.90;;;;;;4995463;28;20032;-94
2021/06/21 07:05:23;;;;;;;8.13;3.60;;;13.40;99.90;;;;;;5006900;28;20109;-95
2021/06/21 07:07:49;;;;;;;9.93;4.20;;;13.50;99.90;;;;;;4990254;28;20595;-94
2021/06/21 07:10:17;;;;;;;8.05;3.83;;;13.50;99.90;;;;;;4988694;28;20066;-96
2021/06/21 07:12:43;;;;;;;9.88;3.95;;;13.50;99.90;;;;;;4998117;28;20030;-93
2021/06/21 07:15:09;;;;;;;8.50;3.67;;;13.60;99.90;;;;;;4985625;28;20544;-90
2021/06/21 07:17:35;;;;;;;6.53;4.00;;;13.60;99.90;;;;;;4980937;28;20085;-94
2021/06/21 07:20:01;;;;;;;7.35;4.28;;;13.60;99.90;;;;;;4977601;28;20031;-91
2021/06/21 07:22:30;;;;;;;11.23;4.57;;;13.60;99.90;;;;;;4980438;28;20026;-92
2021/06/21 07:24:56;;;;;;;6.50;3.90;;;13.60;99.90;;;;;;4996631;28;20042;-93
2021/06/21 07:27:22;;;;;;;8.68;4.13;;;13.60;99.90;;;;;;4992958;28;20026;-91
2021/06/21 07:29:47;;;;;;;7.80;4.15;;;13.70;99.90;;;;;;4982047;28;20073;-92
2021/06/21 07:32:15;;;;;;;10.88;4.15;;;13.70;99.90;;;;;;4983995;28;20026;-94
2021/06/21 07:34:42;;;;;;;8.68;4.25;;;13.70;99.90;;;;;;4979079;28;136405;-93
2021/06/21 07:37:07;;;;;;;9.70;4.55;;;13.80;99.90;;;;;;4984617;28;20054;-91
2021/06/21 07:39:34;;;;;;;8.57;4.93;;;13.80;99.90;;;;;;4984121;28;20389;-92
2021/06/21 07:42:00;;;;;;;9.35;4.55;;;13.80;99.90;;;;;;4966140;28;20512;-92
2021/06/21 07:44:27;;;;;;;8.90;4.43;;;13.80;99.90;;;;;;4983080;28;20077;-93
2021/06/21 07:46:53;;;;;;;10.20;5.22;;;13.90;99.90;;;;;;4966729;28;20034;-92
2021/06/21 07:49:19;;;;;;;7.10;4.50;;;13.90;99.90;;;;;;4982866;28;20098;-93
2021/06/21 07:51:44;;;;;;;8.63;4.45;;;13.90;99.90;;;;;;4985499;28;20030;-93
2021/06/21 07:54:11;;;;;;;8.70;4.55;;;14.00;99.90;;;;;;4996588;28;20014;-93
2021/06/21 07:56:39;;;;;;;7.22;4.05;;;14.00;99.90;;;;;;4972042;28;20050;-92
2021/06/21 07:59:04;;;;;;;9.57;4.40;;;14.10;99.90;;;;;;4982076;28;20507;-94
2021/06/21 08:01:31;;;;;;;10.57;4.68;;;14.10;99.90;;;;;;4982342;28;20034;-93
2021/06/21 08:04:00;;;;;;;9.77;3.97;;;14.20;99.90;;;;;;4965248;28;20054;-94
2021/06/21 08:06:26;;;;;;;6.68;3.50;;;14.30;99.90;;;;;;4981959;28;20066;-94
2021/06/21 08:08:52;;;;;;;5.47;3.38;;;14.40;99.90;;;;;;4982784;28;20049;-94
2021/06/21 08:11:18;;;;;;;6.57;3.60;;;14.40;99.90;;;;;;4981113;28;20022;-95
2021/06/21 08:13:44;;;;;;;9.68;3.38;;;14.50;99.90;;;;;;4982036;28;20528;-94
2021/06/21 08:16:09;;;;;;;6.63;3.50;;;14.60;99.90;;;;;;4981060;28;20486;-94
2021/06/21 08:18:35;;;;;;;7.38;3.72;;;14.60;99.90;;;;;;4980936;28;20435;-94
2021/06/21 08:21:03;;;;;;;7.95;3.53;;;14.70;99.90;;;;;;4981041;28;20026;-94
2021/06/21 08:23:49;;;;;;;8.13;3.78;;;14.80;99.90;;;;;;4980362;28;20026;-93
2021/06/21 08:26:19;;;;;;;5.95;3.67;;;14.90;99.90;;;;;;4992770;28;20133;-92
2021/06/21 08:28:46;;;;;;;7.85;3.53;;;15.00;99.90;;;;;;4982352;28;20045;-95
2021/06/21 08:31:17;;;;;;;7.13;3.72;;;15.00;99.90;;;;;;5000257;28;20030;-94
2021/06/21 08:33:42;;;;;;;;;;;15.10;99.50;;;;;;5000709;28;20034;-96
2021/06/21 08:36:12;;;;;;;8.82;3.78;;;15.10;99.20;;;;;;5020346;28;19910;-94
2021/06/21 08:38:38;;;;;;;10.07;3.72;;;15.10;99.00;;;;;;4999755;28;20053;-94
2021/06/21 08:41:10;;;;;;;6.07;4.03;;;15.10;98.90;;;;;;5001678;28;20029;-92
2021/06/21 08:43:38;;;;;;;7.60;3.85;;;15.10;98.70;;;;;;5003127;28;20518;-96
2021/06/21 08:46:10;;;;;;;9.88;4.82;;;15.20;98.40;;;;;;5005222;28;20037;-95
2021/06/21 08:55:39;;;;;;;5.22;2.33;;;15.30;97.70;;;;;;5683515;23;20140;-96
2021/06/21 08:58:08;;;;;;;4.85;2.90;;;15.40;97.40;;;;;;5023865;28;20041;-95
2021/06/21 09:00:35;;;;;;;5.97;2.83;;;15.50;97.10;;;;;;5012135;28;20038;-95
2021/06/21 09:03:03;;;;;;;6.28;3.05;;;15.60;96.80;;;;;;5015910;28;20029;-94
2021/06/21 09:05:32;;;;;;;7.00;2.58;;;15.60;96.50;;;;;;5016602;28;20037;-95
2021/06/21 09:10:35;;;;;;;7.40;2.72;;;15.80;95.40;;;;;;5708594;23;20053;-95
2021/06/21 09:13:13;;;;;;;5.85;2.92;;;15.90;95.40;;;;;;5028798;28;20061;-95
2021/06/21 09:15:49;;;;;;;5.65;3.53;;;15.90;95.00;;;;;;5031935;28;20076;-95
2021/06/21 09:18:36;;;;;;;6.03;2.60;;;16.10;94.70;;;;;;5028989;28;20029;-93
2021/06/21 09:21:25;;;;;;;6.25;3.00;;;16.10;94.10;;;;;;5031579;28;20394;-94
2021/06/21 09:23:54;;;;;;;7.90;2.92;;;16.20;93.90;;;;;;5011336;28;20026;-95
2021/06/21 09:26:23;;;;;;;6.85;2.92;;;16.30;93.50;;;;;;5010891;28;20038;-94
2021/06/21 09:28:49;;;;;;;4.43;2.90;;;16.30;93.00;;;;;;5027415;28;20093;-94
2021/06/21 09:31:15;;;;;;;6.90;2.90;;;16.40;92.80;;;;;;5031119;28;20033;-94
2021/06/21 09:33:41;;;;;;;5.25;2.42;;;16.40;92.50;;;;;;5031398;28;20029;-93
2021/06/21 09:36:07;;;;;;;6.07;3.20;;;16.50;92.30;;;;;;5027445;28;20025;-94
2021/06/21 09:38:33;;;;;;;6.70;2.78;;;16.50;92.20;;;;;;5026040;28;20018;-92
2021/06/21 09:40:59;;;;;;;6.10;2.88;;;16.50;92.00;;;;;;5029454;28;20025;-95
2021/06/21 09:43:36;;;;;;;4.93;3.30;;;16.60;92.00;;;;;;5028793;28;20108;-95
2021/06/21 09:46:02;;;;;;;6.53;2.72;;;16.60;91.80;;;;;;5028772;28;20037;-94
2021/06/21 09:48:36;;;;;;;7.57;3.17;;;16.70;91.70;;;;;;5028700;28;20471;-94
2021/06/21 09:51:31;;;;;;;5.40;3.17;;;16.70;91.40;;;;;;5030168;28;20036;-94
2021/06/21 09:54:11;;;;;;;5.07;2.70;;;16.80;91.30;;;;;;5028194;28;20116;-94
2021/06/21 09:56:39;;;;;;;4.47;2.63;;;16.90;91.10;;;;;;5030697;28;20083;-94
2021/06/21 09:59:28;;;;;;;7.32;3.10;;;17.00;90.90;;;;;;5029325;28;20517;-93
2021/06/21 10:02:07;;;;;;;7.85;3.00;;;17.20;90.60;;;;;;5025211;28;20021;-95
2021/06/21 10:04:36;;;;;;;8.88;3.03;;;17.20;90.30;;;;;;5021517;28;20053;-93
2021/06/21 10:07:03;;;;;;;5.50;2.55;;;17.30;90.00;;;;;;4998130;28;20099;-95
2021/06/21 10:09:30;;;;;;;5.40;2.55;;;17.50;89.50;;;;;;4987054;28;20026;-95
2021/06/21 10:11:56;;;;;;;5.00;2.40;;;17.70;88.40;;;;;;4985099;28;20050;-96
2021/06/21 10:14:26;;;;;;;5.03;2.28;;;18.00;86.50;;;;;;5001789;28;20033;-94
2021/06/21 10:16:52;;;;;;;4.10;2.33;;;18.30;84.60;;;;;;4983551;28;20034;-92
2021/06/21 10:19:19;;;;;;;3.85;2.55;;;18.50;82.70;;;;;;4985121;28;20030;-96
2021/06/21 10:21:49;;;;;;;6.15;2.20;;;18.50;80.40;;;;;;4988220;28;20034;-95
2021/06/21 10:24:15;;;;;;;5.70;2.35;;;18.70;80.00;;;;;;4987126;28;20052;-95
2021/06/21 10:26:50;;;;;;;4.57;2.45;;;18.90;78.10;;;;;;4988735;28;20081;-94
2021/06/21 10:29:16;;;;;;;3.40;2.40;;;18.90;76.50;;;;;;4985564;28;20026;-94
2021/06/21 10:31:43;;;;;;;3.47;2.28;;;18.80;76.10;;;;;;5006630;28;20026;-95
2021/06/21 10:34:09;;;;;;;5.85;2.70;;;18.80;75.60;;;;;;5003860;28;20029;-95
2021/06/21 10:36:51;;;;;;;4.40;2.63;;;18.70;75.70;;;;;;4993255;28;20032;-94
2021/06/21 10:39:22;;;;;;;4.22;2.17;;;18.70;76.50;;;;;;5000644;28;20030;-94
2021/06/21 10:42:07;;;;;;;8.30;2.90;;;18.70;76.10;;;;;;4991347;28;20123;-95
2021/06/21 10:44:56;;;;;;;6.93;2.55;;;18.80;76.00;;;;;;4989559;28;20038;-96
2021/06/21 10:47:22;;;;;;;5.28;2.25;;;18.90;75.80;;;;;;4997725;28;20091;-95
2021/06/21 10:50:10;;;;;;;4.43;2.53;;;19.00;75.40;;;;;;4989813;28;20028;-95
2021/06/21 10:52:37;;;;;;;3.20;2.15;;;19.00;74.90;;;;;;4989471;28;20033;-95
2021/06/21 10:55:38;;;;;;;5.38;2.13;;;19.10;74.90;;;;;;4991388;28;20019;-95
2021/06/21 10:58:31;;;;;;;5.85;3.22;;;19.20;74.30;;;;;;4994777;28;20519;-95
2021/06/21 11:01:11;;;;;;;6.35;2.67;;;19.20;73.80;;;;;;4990997;28;20021;-96
2021/06/21 11:03:38;;;;;;;7.28;2.60;;;19.20;73.70;;;;;;4997366;28;20037;-95
2021/06/21 11:06:23;;;;;;;6.20;2.22;;;19.30;74.00;;;;;;4991067;28;20109;-95
2021/06/21 11:08:56;;;;;;;4.90;2.80;;;19.30;73.40;;;;;;4993133;28;20022;-94
2021/06/21 11:11:44;;;;;;;3.17;2.33;;;19.20;73.00;;;;;;4990788;28;20104;-96
2021/06/21 11:14:15;;;;;;;7.45;3.00;;;19.10;73.20;;;;;;5009426;28;20053;-95
2021/06/21 11:16:47;;;;;;;4.90;2.80;;;18.90;73.70;;;;;;5007145;28;20026;-95
2021/06/21 11:19:13;;;;;;;3.70;2.60;;;18.70;74.30;;;;;;4983810;28;20030;-93
2021/06/21 11:21:54;;;;;;;5.45;2.67;;;18.60;75.10;;;;;;4983140;28;20022;-95
2021/06/21 11:24:38;;;;;;;7.00;2.97;;;18.50;75.80;;;;;;4983930;28;20034;-96
2021/06/21 11:27:09;;;;;;;5.90;3.13;;;18.40;76.50;;;;;;4985479;28;20516;-96
2021/06/21 11:29:40;;;;;;;7.30;3.10;;;18.30;77.00;;;;;;5008016;28;20030;-95
2021/06/21 11:32:07;;;;;;;8.90;3.88;;;18.10;77.60;;;;;;4989480;28;20039;-95
2021/06/21 11:34:51;;;;;;;7.55;3.42;;;18.00;78.50;;;;;;4983497;28;20037;-95
2021/06/21 11:37:34;;;;;;;7.20;3.85;;;17.80;79.50;;;;;;4981800;28;20023;-95
2021/06/21 11:40:16;;;;;;;6.78;3.58;;;17.70;80.20;;;;;;4982707;28;20022;-95
2021/06/21 11:42:57;;;;;;;6.28;4.03;;;17.60;81.00;;;;;;4983927;28;20018;-96
2021/06/21 11:45:48;;;;;;;6.72;3.08;;;17.40;82.60;;;;;;4983889;28;20113;-95
2021/06/21 11:48:24;;;;;;;;;;;17.40;82.50;;;;;;4981531;28;20038;-96
2021/06/21 11:50:50;;;;;;;7.68;3.80;;;17.30;82.90;;;;;;4980829;28;19989;-95
2021/06/21 11:53:16;;;;;;;6.95;3.75;;;17.20;83.40;;;;;;4982130;28;20038;-95
2021/06/21 11:55:43;;;;;;;8.48;4.05;;;17.20;84.00;;;;;;4982521;28;20038;-95
2021/06/21 11:58:09;;;;;;;8.48;4.20;;;17.10;84.70;;;;;;4980918;28;20023;-95
2021/06/21 12:00:36;;;;;;;8.43;4.43;;;17.00;85.60;;;;;;4980715;28;20023;-94
2021/06/21 12:03:08;;;;;;;11.20;5.32;;;17.00;86.40;;;;;;4979764;28;20018;-94
2021/06/21 12:05:33;;;;;;;14.82;5.10;;;16.90;87.60;;;;;;4980569;28;20077;-93
2021/06/21 12:07:59;;;;;;;12.43;6.00;;;16.80;88.40;;;;;;4979980;28;20022;-95
2021/06/21 12:10:25;;;;;;;15.38;5.28;;;16.70;89.30;;;;;;4981212;28;20065;-94
2021/06/21 12:12:55;;;;;;;13.82;7.32;;;16.60;90.10;;;;;;4983551;28;20511;-96
2021/06/21 12:15:29;;;;;;;13.33;5.10;;;16.50;90.50;;;;;;4982762;28;20030;-95
2021/06/21 12:17:55;;;;;;;14.25;5.80;;;16.40;90.90;;;;;;4981634;28;20237;-95
2021/06/21 12:20:21;;;;;;;10.52;5.00;;;16.30;91.50;;;;;;4980135;28;20034;-94
2021/06/21 12:22:56;;;;;;;10.13;5.18;;;16.20;91.90;;;;;;4980045;28;20034;-94
2021/06/21 12:25:43;;;;;;;11.25;4.40;;;16.10;92.50;;;;;;4979935;28;20480;-94
2021/06/21 12:28:12;;;;;;;8.70;3.30;;;15.90;92.90;;;;;;4980974;28;20034;-95
2021/06/21 12:30:46;;;;;;;10.68;3.10;;;15.80;93.30;;;;;;4981631;28;20042;-94
2021/06/21 12:33:41;;;;;;;10.50;3.90;;;15.70;93.70;;;;;;4981408;28;20031;-93
2021/06/21 12:36:29;;;;;;;13.85;4.65;;;15.50;94.20;;;;;;4981298;28;20026;-94
2021/06/21 12:39:01;;;;;;;14.23;3.15;;;15.40;94.80;;;;;;4981537;28;20036;-93
2021/06/21 12:41:29;;;;;;;12.20;3.25;;;15.30;95.30;;;;;;4981864;28;20065;-93
2021/06/21 12:43:58;;;;;;;8.55;2.25;;;15.20;95.70;;;;;;4982375;28;20041;-94
2021/06/21 12:46:27;;;;;;;8.45;3.10;;;15.10;96.20;;;;;;4981100;28;20042;-92
2021/06/21 12:48:54;;;;;;;7.05;3.17;;;15.10;96.70;;;;;;4981124;28;20480;-93
2021/06/21 12:51:20;;;;;;;11.95;3.53;;;15.00;97.00;;;;;;4981127;28;20041;-93
2021/06/21 12:53:52;;;;;;;6.50;2.70;;;14.90;97.40;;;;;;4980125;28;20125;-93
2021/06/21 12:56:24;;;;;;;8.93;3.40;;;14.90;97.90;;;;;;4980595;28;20030;-93
2021/06/21 12:58:51;;;;;;;8.85;3.35;;;14.90;98.30;;;;;;4980515;28;20030;-93
2021/06/21 13:01:32;;;;;;;7.40;3.05;;;14.90;98.70;;;;;;4980522;28;20037;-94
2021/06/21 13:04:00;;;;;;;5.53;2.50;;;14.90;99.20;;;;;;4979954;28;20050;-92
2021/06/21 13:06:34;;;;;;;6.45;3.30;;;14.90;99.50;;;;;;4981492;28;20128;-93
2021/06/21 13:09:21;;;;;;;8.25;2.63;;;14.90;99.90;;;;;;4985475;28;20069;-92